Time;durP1;ratioP1;P1;durP2;ratioP2;P2;SDS_P1;SDS_P2;PMS_P1;PMS_P2;Temp;Humidity;BMP_temperature;BMP_pressure;BME280_temperature;BME280_humidity;BME280_pressure;Samples;Min_cycle;Max_cycle;Signal;HPM_P1;HPM_P2
2022/03/12 00:01:32;;;;;;;;;;;;;;;;;;5007978;28;19957;-86
2022/03/12 00:04:00;;;;;;;;;;;;;;;;;;5026372;28;19902;-84
2022/03/12 00:06:25;;;;;;;;;;;;;;;;;;5028644;28;19913;-85
2022/03/12 00:08:51;;;;;;;;;;;;;;;;;;5023371;28;19960;-84
2022/03/12 00:11:16;;;;;;;;;;;;;;;;;;5022841;28;19909;-87
2022/03/12 00:13:42;;;;;;;;;;;;;;;;;;5035906;28;20323;-85
2022/03/12 00:16:10;;;;;;;;;;;;;;;;;;5016437;28;19905;-87
2022/03/12 00:18:36;;;;;;;;;;;;;;;;;;5029210;28;19946;-86
2022/03/12 00:21:07;;;;;;;;;;;;;;;;;;5046016;28;19916;-83
2022/03/12 00:23:33;;;;;;;;;;;;;;;;;;5028615;28;19908;-84
2022/03/12 00:26:00;;;;;;;;;;;;;;;;;;5029441;28;19910;-85
2022/03/12 00:28:25;;;;;;;;;;;;;;;;;;5027847;28;19916;-87
2022/03/12 00:30:51;;;;;;;;;;;;;;;;;;5025178;28;19929;-85
2022/03/12 00:33:17;;;;;;;;;;;;;;;;;;5026035;28;20378;-85
2022/03/12 00:35:43;;;;;;;;;;;;;;;;;;5042693;28;19937;-88
2022/03/12 00:38:08;;;;;;;;;;;;;;;;;;5025959;28;19909;-85
2022/03/12 00:40:35;;;;;;;;;;;;;;;;;;5025059;28;19980;-87
2022/03/12 00:43:00;;;;;;;;;;;;;;;;;;5025975;28;20018;-84
2022/03/12 00:45:27;;;;;;;;;;;;;;;;;;5025683;28;20375;-84
2022/03/12 00:47:52;;;;;;;;;;;;;;;;;;5042525;28;19909;-88
2022/03/12 00:50:17;;;;;;;;;;;;;;;;;;5026174;28;19917;-85
2022/03/12 00:52:42;;;;;;;;;;;;;;;;;;5026230;28;19941;-85
2022/03/12 00:55:07;;;;;;;;;;;;;;;;;;5043880;28;20035;-84
2022/03/12 00:57:32;;;;;;;;;;;;;;;;;;5025695;28;19909;-86
2022/03/12 00:59:57;;;;;;;;;;;;;;;;;;5044147;28;19910;-86
2022/03/12 01:02:22;;;;;;;;;;;;;;;;;;5043966;28;19932;-86
2022/03/12 01:04:48;;;;;;;;;;;;;;;;;;5025703;28;19959;-88
2022/03/12 01:07:13;;;;;;;;;;;;;;;;;;5026537;28;19947;-87
2022/03/12 01:09:38;;;;;;;;;;;;;;;;;;5026367;28;19909;-87
2022/03/12 01:12:03;;;;;;;;;;;;;;;;;;5025728;28;19936;-84
2022/03/12 01:14:29;;;;;;;;;;;;;;;;;;5026809;28;19916;-86
2022/03/12 01:16:54;;;;;;;;;;;;;;;;;;5027067;28;19909;-87
2022/03/12 01:19:19;;;;;;;;;;;;;;;;;;5026804;28;19932;-84
2022/03/12 01:21:44;;;;;;;;;;;;;;;;;;5026187;28;20225;-86
2022/03/12 01:24:09;;;;;;;;;;;;;;;;;;5027082;28;20067;-86
2022/03/12 01:26:35;;;;;;;;;;;;;;;;;;5043561;28;19909;-85
2022/03/12 01:29:00;;;;;;;;;;;;;;;;;;5044200;28;19969;-86
2022/03/12 01:31:25;;;;;;;;;;;;;;;;;;5026553;28;19909;-87
2022/03/12 01:33:50;;;;;;;;;;;;;;;;;;5026146;28;19917;-85
2022/03/12 01:36:15;;;;;;;;;;;;;;;;;;5026044;28;19909;-84
2022/03/12 01:38:40;;;;;;;;;;;;;;;;;;5025377;28;20358;-86
2022/03/12 01:41:06;;;;;;;;;;;;;;;;;;5025383;28;19916;-84
2022/03/12 01:43:31;;;;;;;;;;;;;;;;;;5025583;28;19980;-87
2022/03/12 01:46:00;;;;;;;;;;;;;;;;;;5043578;28;20347;-87
2022/03/12 01:48:25;;;;;;;;;;;;;;;;;;5025881;28;19917;-84
2022/03/12 01:50:50;;;;;;;;;;;;;;;;;;5025603;28;19909;-88
2022/03/12 01:53:15;;;;;;;;;;;;;;;;;;5025315;28;19936;-85
2022/03/12 01:55:40;;;;;;;;;;;;;;;;;;5026062;28;19909;-86
2022/03/12 01:58:05;;;;;;;;;;;;;;;;;;5044093;28;19909;-87
2022/03/12 02:00:30;;;;;;;;;;;;;;;;;;5029979;28;19913;-85
2022/03/12 02:02:56;;;;;;;;;;;;;;;;;;5042960;28;19921;-87
2022/03/12 02:05:21;;;;;;;;;;;;;;;;;;5047657;28;19909;-88
2022/03/12 02:07:46;;;;;;;;;;;;;;;;;;5048088;28;20383;-85
2022/03/12 02:10:13;;;;;;;;;;;;;;;;;;5046701;28;19917;-85
2022/03/12 02:12:38;;;;;;;;;;;;;;;;;;5046173;28;20456;-88
2022/03/12 02:15:03;;;;;;;;;;;;;;;;;;5046026;28;19909;-88
2022/03/12 02:17:28;;;;;;;;;;;;;;;;;;5046251;28;19909;-86
2022/03/12 02:19:53;;;;;;;;;;;;;;;;;;5046567;28;19909;-86
2022/03/12 02:22:18;;;;;;;;;;;;;;;;;;5047286;28;19905;-86
2022/03/12 02:24:44;;;;;;;;;;;;;;;;;;5048177;28;19928;-86
2022/03/12 02:27:12;;;;;;;;;;;;;;;;;;5048832;28;19913;-85
2022/03/12 02:29:37;;;;;;;;;;;;;;;;;;5047999;28;19920;-87
2022/03/12 02:32:04;;;;;;;;;;;;;;;;;;5047536;28;19921;-86
2022/03/12 02:34:30;;;;;;;;;;;;;;;;;;5048838;28;19913;-89
2022/03/12 02:36:57;;;;;;;;;;;;;;;;;;5048457;28;19916;-89
2022/03/12 02:39:22;;;;;;;;;;;;;;;;;;5048553;28;19909;-86
2022/03/12 02:41:47;;;;;;;;;;;;;;;;;;5048687;28;19919;-89
2022/03/12 02:44:16;;;;;;;;;;;;;;;;;;5050055;28;19914;-86
2022/03/12 02:46:41;;;;;;;;;;;;;;;;;;5047875;28;20370;-85
2022/03/12 02:49:06;;;;;;;;;;;;;;;;;;5047555;28;19976;-86
2022/03/12 02:51:33;;;;;;;;;;;;;;;;;;5048988;28;19909;-86
2022/03/12 02:53:58;;;;;;;;;;;;;;;;;;5047742;28;19976;-88
2022/03/12 02:56:23;;;;;;;;;;;;;;;;;;5049293;28;19917;-87
2022/03/12 02:58:48;;;;;;;;;;;;;;;;;;5048692;28;19919;-88
2022/03/12 03:01:16;;;;;;;;;;;;;;;;;;5047604;28;19914;-87
2022/03/12 03:03:42;;;;;;;;;;;;;;;;;;5030644;28;19952;-86
2022/03/12 03:06:08;;;;;;;;;;;;;;;;;;5030553;28;19910;-85
2022/03/12 03:08:39;;;;;;;;;;;;;;;;;;5031417;28;19909;-85
2022/03/12 03:11:04;;;;;;;;;;;;;;;;;;5030691;28;19910;-87
2022/03/12 03:13:29;;;;;;;;;;;;;;;;;;5048155;28;19917;-89
2022/03/12 03:15:54;;;;;;;;;;;;;;;;;;5030645;28;19921;-86
2022/03/12 03:18:20;;;;;;;;;;;;;;;;;;5030533;28;19909;-84
2022/03/12 03:20:46;;;;;;;;;;;;;;;;;;5030285;28;19909;-84
2022/03/12 03:23:11;;;;;;;;;;;;;;;;;;5048185;28;19916;-84
2022/03/12 03:25:36;;;;;;;;;;;;;;;;;;5048438;28;19913;-89
2022/03/12 03:28:01;;;;;;;;;;;;;;;;;;5048612;28;19913;-89
2022/03/12 03:30:26;;;;;;;;;;;;;;;;;;5030210;28;19988;-85
2022/03/12 03:32:51;;;;;;;;;;;;;;;;;;5048128;28;19932;-85
2022/03/12 03:35:17;;;;;;;;;;;;;;;;;;5029873;28;19913;-87
2022/03/12 03:37:42;;;;;;;;;;;;;;;;;;5029524;28;19948;-85
2022/03/12 03:40:07;;;;;;;;;;;;;;;;;;5029751;28;19909;-87
2022/03/12 03:42:33;;;;;;;;;;;;;;;;;;5029491;28;19935;-84
2022/03/12 03:45:02;;;;;;;;;;;;;;;;;;5029615;28;19909;-87
2022/03/12 03:47:27;;;;;;;;;;;;;;;;;;5047378;28;20317;-86
2022/03/12 03:49:52;;;;;;;;;;;;;;;;;;5028850;28;19913;-87
2022/03/12 03:52:17;;;;;;;;;;;;;;;;;;5029208;28;19960;-89
2022/03/12 03:54:43;;;;;;;;;;;;;;;;;;5029771;28;19932;-84
2022/03/12 03:57:10;;;;;;;;;;;;;;;;;;5047516;28;19944;-87
2022/03/12 03:59:35;;;;;;;;;;;;;;;;;;5030470;28;19909;-88
2022/03/12 04:02:00;;;;;;;;;;;;;;;;;;5035563;28;20362;-87
2022/03/12 04:04:28;;;;;;;;;;;;;;;;;;5046362;28;19917;-84
2022/03/12 04:06:54;;;;;;;;;;;;;;;;;;5047952;28;19893;-86
2022/03/12 04:09:19;;;;;;;;;;;;;;;;;;5046618;28;19915;-88
2022/03/12 04:11:44;;;;;;;;;;;;;;;;;;5046063;28;19909;-86
2022/03/12 04:14:09;;;;;;;;;;;;;;;;;;5045726;28;19913;-87
2022/03/12 04:16:35;;;;;;;;;;;;;;;;;;5046629;28;19909;-88
2022/03/12 04:19:05;;;;;;;;;;;;;;;;;;5046135;28;19909;-86
2022/03/12 04:21:31;;;;;;;;;;;;;;;;;;5046026;28;19909;-86
2022/03/12 04:23:56;;;;;;;;;;;;;;;;;;5046740;28;19917;-87
2022/03/12 04:26:21;;;;;;;;;;;;;;;;;;5047672;28;19964;-88
2022/03/12 04:28:46;;;;;;;;;;;;;;;;;;5046056;28;19914;-85
2022/03/12 04:31:13;;;;;;;;;;;;;;;;;;5045698;28;19917;-84
2022/03/12 04:33:39;;;;;;;;;;;;;;;;;;5045825;28;19917;-86
2022/03/12 04:36:04;;;;;;;;;;;;;;;;;;5045733;28;19909;-86
2022/03/12 04:38:29;;;;;;;;;;;;;;;;;;5046154;28;19931;-87
2022/03/12 04:40:55;;;;;;;;;;;;;;;;;;5045815;28;19965;-87
2022/03/12 04:43:20;;;;;;;;;;;;;;;;;;5046543;28;19949;-86
2022/03/12 04:45:45;;;;;;;;;;;;;;;;;;5045825;28;19923;-85
2022/03/12 04:48:10;;;;;;;;;;;;;;;;;;5045227;28;19909;-83
2022/03/12 04:50:35;;;;;;;;;;;;;;;;;;5045893;28;19984;-87
2022/03/12 04:53:01;;;;;;;;;;;;;;;;;;5046414;28;20054;-86
2022/03/12 04:55:26;;;;;;;;;;;;;;;;;;5046519;28;19909;-85
2022/03/12 04:57:52;;;;;;;;;;;;;;;;;;5046435;28;19905;-85
2022/03/12 05:00:17;;;;;;;;;;;;;;;;;;5046555;28;20046;-84
2022/03/12 05:02:42;;;;;;;;;;;;;;;;;;5046128;28;19932;-84
2022/03/12 05:05:07;;;;;;;;;;;;;;;;;;5049006;28;19905;-83
2022/03/12 05:07:32;;;;;;;;;;;;;;;;;;5049512;28;19918;-85
2022/03/12 05:09:58;;;;;;;;;;;;;;;;;;5049782;28;19917;-85
2022/03/12 05:12:25;;;;;;;;;;;;;;;;;;5049822;28;19921;-87
2022/03/12 05:14:54;;;;;;;;;;;;;;;;;;5046819;28;19909;-86
2022/03/12 05:17:21;;;;;;;;;;;;;;;;;;5046277;28;19952;-85
2022/03/12 05:19:47;;;;;;;;;;;;;;;;;;5045549;28;19897;-86
2022/03/12 05:22:12;;;;;;;;;;;;;;;;;;5045886;28;19920;-85
2022/03/12 05:24:37;;;;;;;;;;;;;;;;;;5045343;28;19917;-85
2022/03/12 05:27:02;;;;;;;;;;;;;;;;;;5045991;28;19909;-83
2022/03/12 05:29:30;;;;;;;;;;;;;;;;;;5045557;28;19909;-84
2022/03/12 05:31:55;;;;;;;;;;;;;;;;;;5046284;28;19953;-87
2022/03/12 05:34:21;;;;;;;;;;;;;;;;;;5049294;28;19909;-86
2022/03/12 05:36:46;;;;;;;;;;;;;;;;;;5047460;28;19909;-86
2022/03/12 05:39:11;;;;;;;;;;;;;;;;;;5048260;28;19909;-85
2022/03/12 05:41:38;;;;;;;;;;;;;;;;;;5048123;28;19910;-84
2022/03/12 05:44:03;;;;;;;;;;;;;;;;;;5047345;28;19909;-86
2022/03/12 05:46:29;;;;;;;;;;;;;;;;;;5048411;28;19941;-87
2022/03/12 05:48:54;;;;;;;;;;;;;;;;;;5049500;28;19952;-87
2022/03/12 05:51:19;;;;;;;;;;;;;;;;;;5050142;28;19916;-85
2022/03/12 05:53:47;;;;;;;;;;;;;;;;;;5046831;28;19932;-85
2022/03/12 05:56:12;;;;;;;;;;;;;;;;;;5047155;28;19935;-88
2022/03/12 05:58:39;;;;;;;;;;;;;;;;;;5047844;28;20003;-87
2022/03/12 06:01:05;;;;;;;;;;;;;;;;;;5046420;28;19916;-83
2022/03/12 06:03:30;;;;;;;;;;;;;;;;;;5047900;28;19913;-87
2022/03/12 06:05:58;;;;;;;;;;;;;;;;;;5031872;28;19992;-86
2022/03/12 06:08:26;;;;;;;;;;;;;;;;;;5050055;28;19909;-87
2022/03/12 06:10:54;;;;;;;;;;;;;;;;;;5048026;28;19931;-89
2022/03/12 06:13:22;;;;;;;;;;;;;;;;;;5031372;28;19917;-87
2022/03/12 06:15:58;;;;;;;;;;;;;;;;;;5031997;28;19913;-84
2022/03/12 06:18:24;;;;;;;;;;;;;;;;;;5031328;28;19917;-88
2022/03/12 06:20:49;;;;;;;;;;;;;;;;;;5031328;28;20248;-88
2022/03/12 06:23:14;;;;;;;;;;;;;;;;;;5030508;28;19917;-86
2022/03/12 06:25:39;;;;;;;;;;;;;;;;;;5031646;28;19899;-86
2022/03/12 06:30:33;;;;;;;;;;;;;;;;;;5048256;28;19909;-87
2022/03/12 06:32:58;;;;;;;;;;;;;;;;;;5031314;28;19925;-85
2022/03/12 06:35:24;;;;;;;;;;;;;;;;;;5033227;28;19909;-85
2022/03/12 06:37:49;;;;;;;;;;;;;;;;;;5031102;28;19976;-87
2022/03/12 06:40:14;;;;;;;;;;;;;;;;;;5031010;28;19916;-84
2022/03/12 06:42:39;;;;;;;;;;;;;;;;;;5048709;28;20367;-85
2022/03/12 06:45:05;;;;;;;;;;;;;;;;;;5029804;28;19920;-85
2022/03/12 06:47:32;;;;;;;;;;;;;;;;;;5029365;28;19916;-85
2022/03/12 06:49:57;;;;;;;;;;;;;;;;;;5027786;28;20052;-88
2022/03/12 06:52:22;;;;;;;;;;;;;;;;;;5029011;28;19921;-85
2022/03/12 06:54:47;;;;;;;;;;;;;;;;;;5027948;28;19918;-86
2022/03/12 06:57:12;;;;;;;;;;;;;;;;;;5027657;28;19936;-85
2022/03/12 06:59:37;;;;;;;;;;;;;;;;;;5027123;28;19935;-83
2022/03/12 07:02:02;;;;;;;;;;;;;;;;;;5033812;28;19976;-85
2022/03/12 07:04:27;;;;;;;;;;;;;;;;;;5043935;28;19941;-85
2022/03/12 07:06:53;;;;;;;;;;;;;;;;;;5043049;28;19959;-87
2022/03/12 07:09:18;;;;;;;;;;;;;;;;;;5041540;28;19909;-85
2022/03/12 07:11:43;;;;;;;;;;;;;;;;;;5037875;28;19987;-86
2022/03/12 07:14:08;;;;;;;;;;;;;;;;;;5035286;28;19913;-83
2022/03/12 07:16:34;;;;;;;;;;;;;;;;;;5035640;28;20397;-82
2022/03/12 07:18:59;;;;;;;;;;;;;;;;;;5033636;28;19945;-81
2022/03/12 07:21:24;;;;;;;;;;;;;;;;;;5034163;28;20003;-80
2022/03/12 07:23:49;;;;;;;;;;;;;;;;;;5035190;28;19939;-83
2022/03/12 07:26:14;;;;;;;;;;;;;;;;;;5033578;28;19917;-80
2022/03/12 07:28:39;;;;;;;;;;;;;;;;;;5035970;28;19893;-82
2022/03/12 07:31:07;;;;;;;;;;;;;;;;;;5037116;28;19916;-82
2022/03/12 07:33:32;;;;;;;;;;;;;;;;;;5035934;28;19917;-82
2022/03/12 07:35:57;;;;;;;;;;;;;;;;;;5037470;28;19937;-82
2022/03/12 07:38:22;;;;;;;;;;;;;;;;;;5036504;28;19971;-82
2022/03/12 07:40:48;;;;;;;;;;;;;;;;;;5035694;28;19909;-81
2022/03/12 07:43:13;;;;;;;;;;;;;;;;;;5035740;28;19913;-82
2022/03/12 07:45:38;;;;;;;;;;;;;;;;;;5035801;28;19909;-82
2022/03/12 07:48:03;;;;;;;;;;;;;;;;;;5037538;28;19920;-84
2022/03/12 07:50:28;;;;;;;;;;;;;;;;;;5036351;28;19909;-83
2022/03/12 07:52:53;;;;;;;;;;;;;;;;;;5036181;28;19917;-84
2022/03/12 07:55:18;;;;;;;;;;;;;;;;;;5037357;28;19942;-80
2022/03/12 07:57:44;;;;;;;;;;;;;;;;;;5037017;28;19917;-83
2022/03/12 08:00:09;;;;;;;;;;;;;;;;;;5037655;28;19898;-82
2022/03/12 08:02:34;;;;;;;;;;;;;;;;;;5036393;28;19986;-82
2022/03/12 08:04:59;;;;;;;;;;;;;;;;;;5036549;28;19916;-81
2022/03/12 08:07:28;;;;;;;;;;;;;;;;;;5036353;28;20283;-83
2022/03/12 08:09:56;;;;;;;;;;;;;;;;;;5037165;28;19971;-85
2022/03/12 08:12:21;;;;;;;;;;;;;;;;;;5037450;28;19933;-83
2022/03/12 08:14:46;;;;;;;;;;;;;;;;;;5037354;28;19913;-83
2022/03/12 08:17:11;;;;;;;;;;;;;;;;;;5037704;28;20368;-83
2022/03/12 08:19:38;;;;;;;;;;;;;;;;;;5036114;28;19909;-82
2022/03/12 08:22:04;;;;;;;;;;;;;;;;;;5034929;28;19986;-79
2022/03/12 08:24:29;;;;;;;;;;;;;;;;;;5035071;28;19917;-79
2022/03/12 08:26:54;;;;;;;;;;;;;;;;;;5035391;28;19963;-79
2022/03/12 08:29:20;;;;;;;;;;;;;;;;;;5036018;28;19963;-80
2022/03/12 08:31:45;;;;;;;;;;;;;;;;;;5035007;28;19909;-81
2022/03/12 08:34:10;;;;;;;;;;;;;;;;;;5035853;28;19969;-81
2022/03/12 08:36:36;;;;;;;;;;;;;;;;;;5035705;28;19909;-81
2022/03/12 08:39:01;;;;;;;;;;;;;;;;;;5033757;28;20377;-81
2022/03/12 08:41:26;;;;;;;;;;;;;;;;;;5036330;28;19916;-80
2022/03/12 08:43:51;;;;;;;;;;;;;;;;;;5036179;28;19913;-81
2022/03/12 08:46:17;;;;;;;;;;;;;;;;;;5036533;28;19988;-81
2022/03/12 08:48:42;;;;;;;;;;;;;;;;;;5035197;28;20239;-81
2022/03/12 08:51:07;;;;;;;;;;;;;;;;;;5036573;28;19959;-81
2022/03/12 08:53:33;;;;;;;;;;;;;;;;;;5034773;28;20027;-81
2022/03/12 08:56:01;;;;;;;;;;;;;;;;;;5034325;28;19938;-83
2022/03/12 08:58:26;;;;;;;;;;;;;;;;;;5036901;28;19913;-81
2022/03/12 09:00:52;;;;;;;;;;;;;;;;;;5036485;28;19928;-80
2022/03/12 09:03:17;;;;;;;;;;;;;;;;;;5035988;28;20020;-80
2022/03/12 09:05:43;;;;;;;;;;;;;;;;;;5015746;28;19921;-82
2022/03/12 09:08:08;;;;;;;;;;;;;;;;;;5010125;28;19917;-84
2022/03/12 09:10:33;;;;;;;;;;;;;;;;;;5015265;28;20388;-82
2022/03/12 09:12:58;;;;;;;;;;;;;;;;;;5019049;28;19968;-80
2022/03/12 09:15:24;;;;;;;;;;;;;;;;;;5021819;28;19917;-82
2022/03/12 09:17:49;;;;;;;;;;;;;;;;;;5006177;28;19949;-82
2022/03/12 09:20:14;;;;;;;;;;;;;;;;;;5026088;28;19913;-81
2022/03/12 09:22:40;;;;;;;;;;;;;;;;;;5020153;28;19910;-81
2022/03/12 09:25:08;;;;;;;;;;;;;;;;;;5023298;28;20390;-81
2022/03/12 09:27:33;;;;;;;;;;;;;;;;;;5022352;28;20413;-81
2022/03/12 09:29:58;;;;;;;;;;;;;;;;;;5040648;28;19972;-81
2022/03/12 09:32:23;;;;;;;;;;;;;;;;;;5022788;28;19956;-81
2022/03/12 09:34:49;;;;;;;;;;;;;;;;;;5022687;28;19909;-81
2022/03/12 09:37:14;;;;;;;;;;;;;;;;;;5041084;28;20368;-82
2022/03/12 09:39:39;;;;;;;;;;;;;;;;;;5037368;28;19919;-82
2022/03/12 09:42:04;;;;;;;;;;;;;;;;;;5022423;28;20371;-82
2022/03/12 09:44:29;;;;;;;;;;;;;;;;;;5033574;28;19910;-80
2022/03/12 09:46:55;;;;;;;;;;;;;;;;;;5040194;28;19901;-81
2022/03/12 09:49:20;;;;;;;;;;;;;;;;;;5021607;28;19920;-79
2022/03/12 09:51:45;;;;;;;;;;;;;;;;;;5019531;28;19999;-80
2022/03/12 09:54:11;;;;;;;;;;;;;;;;;;5039747;28;19921;-81
2022/03/12 09:56:36;;;;;;;;;;;;;;;;;;5039709;28;19913;-81
2022/03/12 09:59:01;;;;;;;;;;;;;;;;;;5020745;28;19999;-82
2022/03/12 10:01:26;;;;;;;;;;;;;;;;;;5021671;28;19968;-82
2022/03/12 10:03:51;;;;;;;;;;;;;;;;;;5037494;28;19916;-81
2022/03/12 10:06:17;;;;;;;;;;;;;;;;;;5037893;28;19939;-80
2022/03/12 10:08:42;;;;;;;;;;;;;;;;;;5037098;28;19913;-81
2022/03/12 10:11:07;;;;;;;;;;;;;;;;;;5036615;28;20282;-83
2022/03/12 10:13:32;;;;;;;;;;;;;;;;;;5025713;28;19933;-81
2022/03/12 10:15:59;;;;;;;;;;;;;;;;;;5041194;28;20382;-81
2022/03/12 10:18:24;;;;;;;;;;;;;;;;;;5034664;28;19909;-82
2022/03/12 10:20:49;;;;;;;;;;;;;;;;;;5031553;28;19932;-82
2022/03/12 10:23:14;;;;;;;;;;;;;;;;;;5025734;28;19917;-81
2022/03/12 10:25:39;;;;;;;;;;;;;;;;;;5033800;28;20411;-81
2022/03/12 10:28:05;;;;;;;;;;;;;;;;;;5025703;28;20279;-81
2022/03/12 10:30:30;;;;;;;;;;;;;;;;;;5032671;28;20405;-80
2022/03/12 10:32:55;;;;;;;;;;;;;;;;;;5023368;28;19941;-81
2022/03/12 10:35:20;;;;;;;;;;;;;;;;;;5025389;28;20422;-82
2022/03/12 10:37:46;;;;;;;;;;;;;;;;;;5019592;28;19921;-81
2022/03/12 10:40:11;;;;;;;;;;;;;;;;;;5035319;28;19916;-82
2022/03/12 10:42:36;;;;;;;;;;;;;;;;;;5030080;28;19902;-81
2022/03/12 10:45:01;;;;;;;;;;;;;;;;;;5024292;28;19921;-81
2022/03/12 10:47:29;;;;;;;;;;;;;;;;;;5032232;28;20363;-82
2022/03/12 10:49:57;;;;;;;;;;;;;;;;;;5025519;28;19909;-84
2022/03/12 10:52:22;;;;;;;;;;;;;;;;;;5014658;28;19926;-85
2022/03/12 10:54:50;;;;;;;;;;;;;;;;;;5031992;28;19948;-78
2022/03/12 10:57:15;;;;;;;;;;;;;;;;;;5025273;28;19924;-81
2022/03/12 10:59:40;;;;;;;;;;;;;;;;;;5023733;28;19992;-83
2022/03/12 11:02:06;;;;;;;;;;;;;;;;;;5027201;28;19943;-82
2022/03/12 11:04:31;;;;;;;;;;;;;;;;;;5018887;28;20314;-79
2022/03/12 11:06:56;;;;;;;;;;;;;;;;;;5007997;28;19913;-81
2022/03/12 11:09:22;;;;;;;;;;;;;;;;;;5018696;28;19917;-83
2022/03/12 11:11:47;;;;;;;;;;;;;;;;;;5017943;28;19928;-84
2022/03/12 11:14:15;;;;;;;;;;;;;;;;;;5010078;28;19917;-82
2022/03/12 11:16:40;;;;;;;;;;;;;;;;;;5020588;28;20014;-81
2022/03/12 11:19:07;;;;;;;;;;;;;;;;;;5026151;28;20291;-81
2022/03/12 11:21:39;;;;;;;;;;;;;;;;;;5008577;28;19909;-79
2022/03/12 11:24:05;;;;;;;;;;;;;;;;;;5006227;28;19961;-80
2022/03/12 11:26:30;;;;;;;;;;;;;;;;;;5007461;28;19909;-85
2022/03/12 11:28:59;;;;;;;;;;;;;;;;;;5018142;28;19953;-81
2022/03/12 11:31:24;;;;;;;;;;;;;;;;;;5020559;28;19917;-80
2022/03/12 11:33:51;;;;;;;;;;;;;;;;;;5017159;28;19943;-82
2022/03/12 11:36:17;;;;;;;;;;;;;;;;;;5017763;28;20187;-83
2022/03/12 11:38:43;;;;;;;;;;;;;;;;;;5026109;28;19972;-81
2022/03/12 11:41:09;;;;;;;;;;;;;;;;;;5024601;28;19996;-81
2022/03/12 11:43:36;;;;;;;;;;;;;;;;;;5007552;28;19913;-81
2022/03/12 11:46:03;;;;;;;;;;;;;;;;;;5016564;28;19935;-81
2022/03/12 11:48:29;;;;;;;;;;;;;;;;;;5028914;28;19945;-83
2022/03/12 11:50:54;;;;;;;;;;;;;;;;;;5025643;28;20358;-80
2022/03/12 11:53:19;;;;;;;;;;;;;;;;;;5018301;28;19909;-82
2022/03/12 11:55:44;;;;;;;;;;;;;;;;;;5017732;28;20014;-80
2022/03/12 11:58:12;;;;;;;;;;;;;;;;;;5015599;28;19980;-83
2022/03/12 12:00:37;;;;;;;;;;;;;;;;;;5009754;28;19917;-82
2022/03/12 12:03:02;;;;;;;;;;;;;;;;;;5032891;28;20011;-81
2022/03/12 12:05:29;;;;;;;;;;;;;;;;;;4998769;28;19921;-82
2022/03/12 12:07:55;;;;;;;;;;;;;;;;;;5013921;28;20294;-80
2022/03/12 12:10:20;;;;;;;;;;;;;;;;;;5016747;28;19913;-83
2022/03/12 12:12:46;;;;;;;;;;;;;;;;;;5015734;28;19917;-81
2022/03/12 12:15:14;;;;;;;;;;;;;;;;;;4999382;28;19937;-81
2022/03/12 12:17:40;;;;;;;;;;;;;;;;;;5024925;28;19909;-81
2022/03/12 12:20:06;;;;;;;;;;;;;;;;;;5024035;28;19910;-82
2022/03/12 12:22:31;;;;;;;;;;;;;;;;;;5024069;28;19932;-82
2022/03/12 12:24:56;;;;;;;;;;;;;;;;;;5013653;28;19925;-82
2022/03/12 12:27:23;;;;;;;;;;;;;;;;;;5007855;28;19924;-81
2022/03/12 12:29:48;;;;;;;;;;;;;;;;;;5022948;28;19920;-83
2022/03/12 12:32:13;;;;;;;;;;;;;;;;;;5013261;28;19926;-79
2022/03/12 12:34:38;;;;;;;;;;;;;;;;;;5024903;28;19909;-82
2022/03/12 12:37:03;;;;;;;;;;;;;;;;;;5000234;28;19910;-81
2022/03/12 12:39:29;;;;;;;;;;;;;;;;;;5017793;28;19921;-82
2022/03/12 12:41:54;;;;;;;;;;;;;;;;;;4986497;28;19910;-82
2022/03/12 12:44:19;;;;;;;;;;;;;;;;;;5023038;28;19909;-84
2022/03/12 12:46:44;;;;;;;;;;;;;;;;;;5035832;28;19920;-82
2022/03/12 12:49:11;;;;;;;;;;;;;;;;;;5016786;28;19909;-82
2022/03/12 12:51:37;;;;;;;;;;;;;;;;;;5018191;28;19917;-83
2022/03/12 12:54:04;;;;;;;;;;;;;;;;;;5018173;28;19929;-84
2022/03/12 12:56:29;;;;;;;;;;;;;;;;;;5034958;28;19956;-84
2022/03/12 12:58:54;;;;;;;;;;;;;;;;;;5035031;28;19955;-83
2022/03/12 13:01:20;;;;;;;;;;;;;;;;;;5034921;28;19925;-83
2022/03/12 13:03:49;;;;;;;;;;;;;;;;;;5032965;28;19920;-83
2022/03/12 13:06:14;;;;;;;;;;;;;;;;;;5014108;28;19925;-83
2022/03/12 13:08:39;;;;;;;;;;;;;;;;;;5015517;28;19909;-81
2022/03/12 13:11:04;;;;;;;;;;;;;;;;;;5016273;28;19909;-85
2022/03/12 13:13:30;;;;;;;;;;;;;;;;;;5017237;28;19917;-85
2022/03/12 13:15:55;;;;;;;;;;;;;;;;;;5017343;28;20319;-84
2022/03/12 13:18:20;;;;;;;;;;;;;;;;;;5018212;28;19910;-83
2022/03/12 13:20:46;;;;;;;;;;;;;;;;;;5017148;28;19913;-83
2022/03/12 13:23:11;;;;;;;;;;;;;;;;;;5016330;28;20389;-81
2022/03/12 13:25:38;;;;;;;;;;;;;;;;;;5016404;28;19909;-82
2022/03/12 13:28:03;;;;;;;;;;;;;;;;;;5016825;28;19909;-82
2022/03/12 13:30:28;;;;;;;;;;;;;;;;;;5034140;28;19931;-83
2022/03/12 13:32:53;;;;;;;;;;;;;;;;;;5016842;28;19943;-82
2022/03/12 13:35:20;;;;;;;;;;;;;;;;;;5016821;28;19924;-82
2022/03/12 13:37:45;;;;;;;;;;;;;;;;;;5034771;28;19916;-84
2022/03/12 13:40:19;;;;;;;;;;;;;;;;;;5034085;28;19909;-84
2022/03/12 13:42:44;;;;;;;;;;;;;;;;;;5034322;28;20007;-83
2022/03/12 13:45:12;;;;;;;;;;;;;;;;;;5034947;28;19945;-83
2022/03/12 13:47:37;;;;;;;;;;;;;;;;;;5016753;28;19909;-83
2022/03/12 13:50:02;;;;;;;;;;;;;;;;;;5017002;28;19916;-84
2022/03/12 13:52:28;;;;;;;;;;;;;;;;;;5016838;28;19913;-83
2022/03/12 13:54:53;;;;;;;;;;;;;;;;;;5019793;28;20322;-82
2022/03/12 13:57:18;;;;;;;;;;;;;;;;;;5019801;28;19909;-84
2022/03/12 13:59:43;;;;;;;;;;;;;;;;;;5039147;28;19909;-82
2022/03/12 14:02:11;;;;;;;;;;;;;;;;;;5027496;28;19968;-81
2022/03/12 14:04:36;;;;;;;;;;;;;;;;;;5037544;28;19917;-81
2022/03/12 14:07:02;;;;;;;;;;;;;;;;;;5039042;28;20492;-82
2022/03/12 14:09:27;;;;;;;;;;;;;;;;;;5039889;28;19910;-79
2022/03/12 14:11:56;;;;;;;;;;;;;;;;;;5038715;28;19916;-82
2022/03/12 14:14:21;;;;;;;;;;;;;;;;;;5037326;28;20422;-82
2022/03/12 14:16:47;;;;;;;;;;;;;;;;;;5038124;28;20315;-82
2022/03/12 14:19:12;;;;;;;;;;;;;;;;;;5038983;28;19909;-80
2022/03/12 14:21:37;;;;;;;;;;;;;;;;;;5037955;28;19917;-83
2022/03/12 14:24:02;;;;;;;;;;;;;;;;;;5039700;28;20379;-85
2022/03/12 14:26:27;;;;;;;;;;;;;;;;;;5038276;28;19992;-82
2022/03/12 14:28:54;;;;;;;;;;;;;;;;;;5038306;28;19917;-83
2022/03/12 14:31:20;;;;;;;;;;;;;;;;;;5037234;28;20370;-83
2022/03/12 14:33:45;;;;;;;;;;;;;;;;;;5038991;28;19917;-83
2022/03/12 14:36:10;;;;;;;;;;;;;;;;;;5039507;28;19917;-80
2022/03/12 14:38:35;;;;;;;;;;;;;;;;;;5039517;28;19919;-85
2022/03/12 14:41:00;;;;;;;;;;;;;;;;;;5041040;28;19893;-85
2022/03/12 14:43:26;;;;;;;;;;;;;;;;;;5039238;28;20008;-83
2022/03/12 14:45:51;;;;;;;;;;;;;;;;;;5039262;28;19909;-81
2022/03/12 14:48:19;;;;;;;;;;;;;;;;;;5039578;28;19909;-82
2022/03/12 14:50:44;;;;;;;;;;;;;;;;;;5038690;28;19909;-84
2022/03/12 14:53:10;;;;;;;;;;;;;;;;;;5039359;28;19924;-82
2022/03/12 14:55:35;;;;;;;;;;;;;;;;;;5039522;28;19909;-82
2022/03/12 14:58:00;;;;;;;;;;;;;;;;;;5038639;28;19939;-84
2022/03/12 15:00:26;;;;;;;;;;;;;;;;;;5038593;28;19915;-81
2022/03/12 15:02:52;;;;;;;;;;;;;;;;;;5036696;28;20289;-81
2022/03/12 15:05:18;;;;;;;;;;;;;;;;;;5036704;28;19913;-83
2022/03/12 15:07:43;;;;;;;;;;;;;;;;;;5037184;28;19917;-83
2022/03/12 15:10:09;;;;;;;;;;;;;;;;;;5035911;28;19909;-83
2022/03/12 15:12:37;;;;;;;;;;;;;;;;;;5035895;28;20016;-81
2022/03/12 15:15:04;;;;;;;;;;;;;;;;;;5035607;28;19897;-84
2022/03/12 15:17:29;;;;;;;;;;;;;;;;;;5035685;28;19909;-81
2022/03/12 15:19:54;;;;;;;;;;;;;;;;;;5035099;28;19916;-81
2022/03/12 15:22:19;;;;;;;;;;;;;;;;;;5036331;28;19909;-80
2022/03/12 15:24:44;;;;;;;;;;;;;;;;;;5035530;28;19950;-80
2022/03/12 15:27:10;;;;;;;;;;;;;;;;;;5036631;28;19916;-80
2022/03/12 15:29:36;;;;;;;;;;;;;;;;;;5037824;28;19909;-80
2022/03/12 15:32:01;;;;;;;;;;;;;;;;;;5036340;28;19955;-81
2022/03/12 15:34:27;;;;;;;;;;;;;;;;;;5038037;28;20351;-83
2022/03/12 15:36:52;;;;;;;;;;;;;;;;;;5035676;28;19967;-82
2022/03/12 15:39:17;;;;;;;;;;;;;;;;;;5014842;28;19917;-83
2022/03/12 15:41:43;;;;;;;;;;;;;;;;;;5016993;28;19961;-82
2022/03/12 15:44:09;;;;;;;;;;;;;;;;;;5004043;28;19953;-85
2022/03/12 15:46:35;;;;;;;;;;;;;;;;;;5017039;28;19910;-83
2022/03/12 15:49:01;;;;;;;;;;;;;;;;;;5015278;28;19916;-81
2022/03/12 15:51:28;;;;;;;;;;;;;;;;;;5016232;28;19913;-83
2022/03/12 15:53:53;;;;;;;;;;;;;;;;;;5014969;28;20016;-83
2022/03/12 15:56:18;;;;;;;;;;;;;;;;;;5015056;28;19999;-84
2022/03/12 15:58:44;;;;;;;;;;;;;;;;;;5016597;28;20394;-83
2022/03/12 16:01:09;;;;;;;;;;;;;;;;;;5016604;28;19910;-86
2022/03/12 16:03:34;;;;;;;;;;;;;;;;;;4999272;28;20424;-82
2022/03/12 16:05:59;;;;;;;;;;;;;;;;;;5017149;28;19917;-84
2022/03/12 16:08:26;;;;;;;;;;;;;;;;;;4997941;28;19910;-84
2022/03/12 16:10:51;;;;;;;;;;;;;;;;;;4997533;28;19963;-83
2022/03/12 16:13:16;;;;;;;;;;;;;;;;;;4998146;28;19917;-82
2022/03/12 16:15:44;;;;;;;;;;;;;;;;;;5015773;28;19967;-84
2022/03/12 16:18:11;;;;;;;;;;;;;;;;;;5018898;28;19918;-82
2022/03/12 16:20:39;;;;;;;;;;;;;;;;;;4992796;28;19917;-84
2022/03/12 16:23:04;;;;;;;;;;;;;;;;;;4992220;28;19918;-81
2022/03/12 16:25:30;;;;;;;;;;;;;;;;;;5015782;28;19915;-82
2022/03/12 16:27:55;;;;;;;;;;;;;;;;;;5015139;28;19909;-84
2022/03/12 16:30:23;;;;;;;;;;;;;;;;;;5017726;28;20371;-82
2022/03/12 16:32:48;;;;;;;;;;;;;;;;;;5015734;28;19918;-84
2022/03/12 16:35:14;;;;;;;;;;;;;;;;;;5015711;28;20445;-81
2022/03/12 16:37:39;;;;;;;;;;;;;;;;;;5014620;28;19917;-81